sensor_id;sensor_type;location;lat;lon;timestamp;P1;durP1;ratioP1;P2;durP2;ratioP2
3549;SDS011;45572;48.804;8.330;2023-06-22T00:00:30;12.23;;;7.80;;
3549;SDS011;45572;48.804;8.330;2023-06-22T00:02:58;13.23;;;7.90;;
3549;SDS011;45572;48.804;8.330;2023-06-22T00:05:26;8.43;;;6.47;;
3549;SDS011;45572;48.804;8.330;2023-06-22T00:07:55;12.87;;;7.80;;
3549;SDS011;45572;48.804;8.330;2023-06-22T00:10:22;8.87;;;6.80;;
3549;SDS011;45572;48.804;8.330;2023-06-22T00:12:50;13.43;;;6.97;;
3549;SDS011;45572;48.804;8.330;2023-06-22T00:15:18;10.70;;;6.80;;
3549;SDS011;45572;48.804;8.330;2023-06-22T00:17:46;13.33;;;8.33;;
3549;SDS011;45572;48.804;8.330;2023-06-22T00:20:13;12.07;;;7.10;;
3549;SDS011;45572;48.804;8.330;2023-06-22T00:22:42;8.87;;;7.90;;
3549;SDS011;45572;48.804;8.330;2023-06-22T00:25:11;10.70;;;7.63;;
3549;SDS011;45572;48.804;8.330;2023-06-22T00:27:39;10.50;;;7.17;;
3549;SDS011;45572;48.804;8.330;2023-06-22T00:30:07;13.03;;;7.83;;
3549;SDS011;45572;48.804;8.330;2023-06-22T00:32:35;12.70;;;7.17;;
3549;SDS011;45572;48.804;8.330;2023-06-22T00:35:03;9.23;;;7.07;;
3549;SDS011;45572;48.804;8.330;2023-06-22T00:37:32;11.03;;;6.50;;
3549;SDS011;45572;48.804;8.330;2023-06-22T00:39:59;9.80;;;6.70;;
3549;SDS011;45572;48.804;8.330;2023-06-22T00:42:28;10.10;;;6.77;;
3549;SDS011;45572;48.804;8.330;2023-06-22T00:44:56;10.90;;;7.70;;
3549;SDS011;45572;48.804;8.330;2023-06-22T00:47:24;9.90;;;6.93;;
3549;SDS011;45572;48.804;8.330;2023-06-22T00:49:54;11.10;;;7.10;;
3549;SDS011;45572;48.804;8.330;2023-06-22T00:52:23;13.70;;;7.07;;
3549;SDS011;45572;48.804;8.330;2023-06-22T00:54:55;8.73;;;7.00;;
3549;SDS011;45572;48.804;8.330;2023-06-22T00:57:25;11.73;;;8.20;;
3549;SDS011;45572;48.804;8.330;2023-06-22T00:59:56;9.00;;;7.43;;
3549;SDS011;45572;48.804;8.330;2023-06-22T01:02:24;9.23;;;6.43;;
3549;SDS011;45572;48.804;8.330;2023-06-22T01:04:52;10.40;;;7.13;;
3549;SDS011;45572;48.804;8.330;2023-06-22T01:07:24;11.50;;;8.40;;
3549;SDS011;45572;48.804;8.330;2023-06-22T01:10:02;9.97;;;7.20;;
3549;SDS011;45572;48.804;8.330;2023-06-22T01:12:38;7.87;;;6.67;;
3549;SDS011;45572;48.804;8.330;2023-06-22T01:15:11;8.43;;;7.13;;
3549;SDS011;45572;48.804;8.330;2023-06-22T01:17:45;17.83;;;7.43;;
3549;SDS011;45572;48.804;8.330;2023-06-22T01:20:15;11.80;;;7.40;;
3549;SDS011;45572;48.804;8.330;2023-06-22T01:22:46;13.20;;;8.60;;
3549;SDS011;45572;48.804;8.330;2023-06-22T01:25:32;11.33;;;8.63;;
3549;SDS011;45572;48.804;8.330;2023-06-22T01:28:17;9.00;;;7.20;;
3549;SDS011;45572;48.804;8.330;2023-06-22T01:30:54;10.97;;;7.07;;
3549;SDS011;45572;48.804;8.330;2023-06-22T01:33:32;11.43;;;7.83;;
3549;SDS011;45572;48.804;8.330;2023-06-22T01:36:02;11.07;;;8.30;;
3549;SDS011;45572;48.804;8.330;2023-06-22T01:38:30;11.17;;;7.07;;
3549;SDS011;45572;48.804;8.330;2023-06-22T01:40:59;11.70;;;7.40;;
3549;SDS011;45572;48.804;8.330;2023-06-22T01:43:28;13.27;;;7.17;;
3549;SDS011;45572;48.804;8.330;2023-06-22T01:46:00;8.33;;;6.73;;
3549;SDS011;45572;48.804;8.330;2023-06-22T01:48:29;13.20;;;7.43;;
3549;SDS011;45572;48.804;8.330;2023-06-22T01:50:57;12.90;;;7.40;;
3549;SDS011;45572;48.804;8.330;2023-06-22T01:53:25;12.57;;;8.33;;
3549;SDS011;45572;48.804;8.330;2023-06-22T01:55:53;11.17;;;8.43;;
3549;SDS011;45572;48.804;8.330;2023-06-22T01:58:21;9.00;;;7.90;;
3549;SDS011;45572;48.804;8.330;2023-06-22T02:00:53;10.30;;;7.70;;
3549;SDS011;45572;48.804;8.330;2023-06-22T02:03:28;12.93;;;8.30;;
3549;SDS011;45572;48.804;8.330;2023-06-22T02:06:01;13.30;;;7.77;;
3549;SDS011;45572;48.804;8.330;2023-06-22T02:08:35;11.00;;;8.00;;
3549;SDS011;45572;48.804;8.330;2023-06-22T02:11:09;12.30;;;7.70;;
3549;SDS011;45572;48.804;8.330;2023-06-22T02:13:38;8.90;;;8.00;;
3549;SDS011;45572;48.804;8.330;2023-06-22T02:16:09;10.87;;;7.77;;
3549;SDS011;45572;48.804;8.330;2023-06-22T02:18:46;12.23;;;8.07;;
3549;SDS011;45572;48.804;8.330;2023-06-22T02:21:17;10.23;;;7.60;;
3549;SDS011;45572;48.804;8.330;2023-06-22T02:23:45;10.93;;;8.50;;
3549;SDS011;45572;48.804;8.330;2023-06-22T02:26:15;10.97;;;7.70;;
3549;SDS011;45572;48.804;8.330;2023-06-22T02:28:44;12.03;;;7.47;;
3549;SDS011;45572;48.804;8.330;2023-06-22T02:31:16;15.13;;;7.77;;
3549;SDS011;45572;48.804;8.330;2023-06-22T02:33:44;8.37;;;7.23;;
3549;SDS011;45572;48.804;8.330;2023-06-22T02:36:18;13.80;;;7.90;;
3549;SDS011;45572;48.804;8.330;2023-06-22T02:38:48;10.73;;;7.73;;
3549;SDS011;45572;48.804;8.330;2023-06-22T02:41:17;9.83;;;6.73;;
3549;SDS011;45572;48.804;8.330;2023-06-22T02:43:45;10.60;;;7.87;;
3549;SDS011;45572;48.804;8.330;2023-06-22T02:46:13;9.80;;;7.90;;
3549;SDS011;45572;48.804;8.330;2023-06-22T02:48:41;15.70;;;8.57;;
3549;SDS011;45572;48.804;8.330;2023-06-22T02:51:13;9.90;;;7.50;;
3549;SDS011;45572;48.804;8.330;2023-06-22T02:53:42;11.00;;;8.37;;
3549;SDS011;45572;48.804;8.330;2023-06-22T02:56:12;11.47;;;8.33;;
3549;SDS011;45572;48.804;8.330;2023-06-22T02:58:40;9.80;;;7.07;;
3549;SDS011;45572;48.804;8.330;2023-06-22T03:01:10;11.67;;;8.57;;
3549;SDS011;45572;48.804;8.330;2023-06-22T03:03:40;17.03;;;8.90;;
3549;SDS011;45572;48.804;8.330;2023-06-22T03:06:08;15.33;;;8.33;;
3549;SDS011;45572;48.804;8.330;2023-06-22T03:08:42;10.17;;;7.43;;
3549;SDS011;45572;48.804;8.330;2023-06-22T03:11:10;13.03;;;7.67;;
3549;SDS011;45572;48.804;8.330;2023-06-22T03:13:38;11.53;;;7.40;;
3549;SDS011;45572;48.804;8.330;2023-06-22T03:16:06;16.57;;;8.20;;
3549;SDS011;45572;48.804;8.330;2023-06-22T03:18:36;15.27;;;8.90;;
3549;SDS011;45572;48.804;8.330;2023-06-22T03:21:03;8.83;;;7.87;;
3549;SDS011;45572;48.804;8.330;2023-06-22T03:23:31;11.87;;;9.17;;
3549;SDS011;45572;48.804;8.330;2023-06-22T03:26:01;7.80;;;6.93;;
3549;SDS011;45572;48.804;8.330;2023-06-22T03:28:28;11.77;;;7.40;;
3549;SDS011;45572;48.804;8.330;2023-06-22T03:30:57;9.93;;;7.73;;
3549;SDS011;45572;48.804;8.330;2023-06-22T03:33:25;10.40;;;8.57;;
3549;SDS011;45572;48.804;8.330;2023-06-22T03:35:57;10.17;;;6.97;;
3549;SDS011;45572;48.804;8.330;2023-06-22T03:38:26;12.10;;;8.17;;
3549;SDS011;45572;48.804;8.330;2023-06-22T03:40:56;9.30;;;8.00;;
3549;SDS011;45572;48.804;8.330;2023-06-22T03:43:26;12.03;;;6.97;;
3549;SDS011;45572;48.804;8.330;2023-06-22T03:45:55;10.87;;;7.90;;
3549;SDS011;45572;48.804;8.330;2023-06-22T03:48:23;9.80;;;7.93;;
3549;SDS011;45572;48.804;8.330;2023-06-22T03:50:50;13.23;;;8.23;;
3549;SDS011;45572;48.804;8.330;2023-06-22T03:53:18;10.70;;;7.30;;
3549;SDS011;45572;48.804;8.330;2023-06-22T03:55:48;17.30;;;9.03;;
3549;SDS011;45572;48.804;8.330;2023-06-22T03:58:16;10.67;;;8.60;;
3549;SDS011;45572;48.804;8.330;2023-06-22T04:00:48;12.50;;;8.47;;
3549;SDS011;45572;48.804;8.330;2023-06-22T04:03:17;10.97;;;8.63;;
3549;SDS011;45572;48.804;8.330;2023-06-22T04:05:46;8.43;;;7.07;;
3549;SDS011;45572;48.804;8.330;2023-06-22T04:08:14;14.47;;;8.63;;
3549;SDS011;45572;48.804;8.330;2023-06-22T04:10:42;14.77;;;8.93;;
3549;SDS011;45572;48.804;8.330;2023-06-22T04:13:09;12.20;;;8.63;;
3549;SDS011;45572;48.804;8.330;2023-06-22T04:15:37;12.60;;;8.40;;
3549;SDS011;45572;48.804;8.330;2023-06-22T04:18:06;10.63;;;8.20;;
3549;SDS011;45572;48.804;8.330;2023-06-22T04:20:34;14.00;;;8.57;;
3549;SDS011;45572;48.804;8.330;2023-06-22T04:23:03;11.17;;;7.73;;
3549;SDS011;45572;48.804;8.330;2023-06-22T04:25:30;18.93;;;7.83;;
3549;SDS011;45572;48.804;8.330;2023-06-22T04:27:58;12.70;;;8.10;;
3549;SDS011;45572;48.804;8.330;2023-06-22T04:30:29;9.67;;;7.63;;
3549;SDS011;45572;48.804;8.330;2023-06-22T04:32:58;10.70;;;8.07;;
3549;SDS011;45572;48.804;8.330;2023-06-22T04:35:28;13.83;;;8.50;;
3549;SDS011;45572;48.804;8.330;2023-06-22T04:37:57;11.27;;;8.10;;
3549;SDS011;45572;48.804;8.330;2023-06-22T04:40:25;10.70;;;8.10;;
3549;SDS011;45572;48.804;8.330;2023-06-22T04:42:54;11.27;;;8.90;;
3549;SDS011;45572;48.804;8.330;2023-06-22T04:45:22;14.23;;;8.33;;
3549;SDS011;45572;48.804;8.330;2023-06-22T04:47:52;12.50;;;8.43;;
3549;SDS011;45572;48.804;8.330;2023-06-22T04:50:19;11.07;;;9.10;;
3549;SDS011;45572;48.804;8.330;2023-06-22T04:52:51;12.97;;;9.90;;
3549;SDS011;45572;48.804;8.330;2023-06-22T04:55:19;12.60;;;7.83;;
3549;SDS011;45572;48.804;8.330;2023-06-22T04:57:47;12.53;;;8.87;;
3549;SDS011;45572;48.804;8.330;2023-06-22T05:00:16;11.93;;;9.00;;
3549;SDS011;45572;48.804;8.330;2023-06-22T05:02:45;12.20;;;9.73;;
3549;SDS011;45572;48.804;8.330;2023-06-22T05:05:14;11.50;;;8.73;;
3549;SDS011;45572;48.804;8.330;2023-06-22T05:07:43;13.13;;;8.70;;
3549;SDS011;45572;48.804;8.330;2023-06-22T05:10:15;19.67;;;9.43;;
3549;SDS011;45572;48.804;8.330;2023-06-22T05:12:43;17.53;;;9.37;;
3549;SDS011;45572;48.804;8.330;2023-06-22T05:15:11;12.20;;;7.97;;
3549;SDS011;45572;48.804;8.330;2023-06-22T05:17:39;11.93;;;8.70;;
3549;SDS011;45572;48.804;8.330;2023-06-22T05:20:09;14.50;;;9.33;;
3549;SDS011;45572;48.804;8.330;2023-06-22T05:22:38;11.50;;;8.83;;
3549;SDS011;45572;48.804;8.330;2023-06-22T05:25:08;15.20;;;8.70;;
3549;SDS011;45572;48.804;8.330;2023-06-22T05:27:38;13.60;;;9.20;;
3549;SDS011;45572;48.804;8.330;2023-06-22T05:30:06;12.00;;;8.03;;
3549;SDS011;45572;48.804;8.330;2023-06-22T05:32:35;12.33;;;8.20;;
3549;SDS011;45572;48.804;8.330;2023-06-22T05:35:03;10.33;;;8.10;;
3549;SDS011;45572;48.804;8.330;2023-06-22T05:37:32;15.27;;;8.30;;
3549;SDS011;45572;48.804;8.330;2023-06-22T05:40:00;11.17;;;7.70;;
3549;SDS011;45572;48.804;8.330;2023-06-22T05:42:29;11.83;;;7.80;;
3549;SDS011;45572;48.804;8.330;2023-06-22T05:45:00;12.20;;;8.83;;
3549;SDS011;45572;48.804;8.330;2023-06-22T05:47:30;10.40;;;7.50;;
3549;SDS011;45572;48.804;8.330;2023-06-22T05:49:59;10.33;;;7.00;;
3549;SDS011;45572;48.804;8.330;2023-06-22T05:52:37;10.87;;;7.50;;
3549;SDS011;45572;48.804;8.330;2023-06-22T05:55:06;8.53;;;7.23;;
3549;SDS011;45572;48.804;8.330;2023-06-22T05:57:34;11.07;;;7.40;;
3549;SDS011;45572;48.804;8.330;2023-06-22T06:00:05;10.17;;;7.30;;
3549;SDS011;45572;48.804;8.330;2023-06-22T06:02:38;10.97;;;6.63;;
3549;SDS011;45572;48.804;8.330;2023-06-22T06:05:13;14.20;;;7.43;;
3549;SDS011;45572;48.804;8.330;2023-06-22T06:07:44;8.70;;;6.70;;
3549;SDS011;45572;48.804;8.330;2023-06-22T06:10:13;10.50;;;7.73;;
3549;SDS011;45572;48.804;8.330;2023-06-22T06:12:43;9.87;;;6.33;;
3549;SDS011;45572;48.804;8.330;2023-06-22T06:15:13;12.43;;;6.97;;
3549;SDS011;45572;48.804;8.330;2023-06-22T06:17:45;9.23;;;6.07;;
3549;SDS011;45572;48.804;8.330;2023-06-22T06:20:14;10.03;;;6.40;;
3549;SDS011;45572;48.804;8.330;2023-06-22T06:22:43;8.47;;;6.43;;
3549;SDS011;45572;48.804;8.330;2023-06-22T06:25:14;8.23;;;6.27;;
3549;SDS011;45572;48.804;8.330;2023-06-22T06:27:46;9.23;;;5.80;;
3549;SDS011;45572;48.804;8.330;2023-06-22T06:30:17;6.93;;;5.90;;
3549;SDS011;45572;48.804;8.330;2023-06-22T06:32:49;11.03;;;6.70;;
3549;SDS011;45572;48.804;8.330;2023-06-22T06:35:17;6.23;;;5.63;;
3549;SDS011;45572;48.804;8.330;2023-06-22T06:37:48;8.97;;;5.50;;
3549;SDS011;45572;48.804;8.330;2023-06-22T06:40:19;13.73;;;5.70;;
3549;SDS011;45572;48.804;8.330;2023-06-22T06:42:48;6.73;;;4.50;;
3549;SDS011;45572;48.804;8.330;2023-06-22T06:45:19;7.63;;;5.20;;
3549;SDS011;45572;48.804;8.330;2023-06-22T06:47:50;7.40;;;5.37;;
3549;SDS011;45572;48.804;8.330;2023-06-22T06:50:21;10.00;;;5.37;;
3549;SDS011;45572;48.804;8.330;2023-06-22T06:52:48;8.00;;;4.77;;
3549;SDS011;45572;48.804;8.330;2023-06-22T06:55:17;6.50;;;4.73;;
3549;SDS011;45572;48.804;8.330;2023-06-22T06:57:45;5.77;;;4.20;;
3549;SDS011;45572;48.804;8.330;2023-06-22T07:00:14;6.53;;;5.30;;
3549;SDS011;45572;48.804;8.330;2023-06-22T07:02:46;6.03;;;5.10;;
3549;SDS011;45572;48.804;8.330;2023-06-22T07:05:15;7.20;;;3.90;;
3549;SDS011;45572;48.804;8.330;2023-06-22T07:07:43;7.70;;;4.90;;
3549;SDS011;45572;48.804;8.330;2023-06-22T07:10:11;6.50;;;4.40;;
3549;SDS011;45572;48.804;8.330;2023-06-22T07:12:38;4.73;;;3.93;;
3549;SDS011;45572;48.804;8.330;2023-06-22T07:15:07;5.70;;;4.63;;
3549;SDS011;45572;48.804;8.330;2023-06-22T07:17:36;4.70;;;4.23;;
3549;SDS011;45572;48.804;8.330;2023-06-22T07:20:07;5.43;;;4.80;;
3549;SDS011;45572;48.804;8.330;2023-06-22T07:22:37;6.43;;;4.17;;
3549;SDS011;45572;48.804;8.330;2023-06-22T07:25:05;7.63;;;3.97;;
3549;SDS011;45572;48.804;8.330;2023-06-22T07:27:39;6.40;;;4.33;;
3549;SDS011;45572;48.804;8.330;2023-06-22T07:30:13;5.97;;;3.80;;
3549;SDS011;45572;48.804;8.330;2023-06-22T07:32:44;8.87;;;4.10;;
3549;SDS011;45572;48.804;8.330;2023-06-22T07:35:16;4.90;;;3.67;;
3549;SDS011;45572;48.804;8.330;2023-06-22T07:37:43;5.23;;;4.10;;
3549;SDS011;45572;48.804;8.330;2023-06-22T07:40:14;8.70;;;3.47;;
3549;SDS011;45572;48.804;8.330;2023-06-22T07:42:42;4.43;;;3.33;;
3549;SDS011;45572;48.804;8.330;2023-06-22T07:45:09;5.40;;;4.03;;
3549;SDS011;45572;48.804;8.330;2023-06-22T07:47:37;5.17;;;4.17;;
3549;SDS011;45572;48.804;8.330;2023-06-22T07:50:05;6.40;;;4.70;;
3549;SDS011;45572;48.804;8.330;2023-06-22T07:52:35;5.60;;;3.50;;
3549;SDS011;45572;48.804;8.330;2023-06-22T07:55:03;5.53;;;4.20;;
3549;SDS011;45572;48.804;8.330;2023-06-22T07:57:31;4.37;;;3.87;;
3549;SDS011;45572;48.804;8.330;2023-06-22T08:00:01;6.60;;;4.73;;
3549;SDS011;45572;48.804;8.330;2023-06-22T08:02:40;6.20;;;4.90;;
3549;SDS011;45572;48.804;8.330;2023-06-22T08:05:09;5.93;;;4.20;;
3549;SDS011;45572;48.804;8.330;2023-06-22T08:07:49;9.63;;;5.27;;
3549;SDS011;45572;48.804;8.330;2023-06-22T08:10:17;6.13;;;4.50;;
3549;SDS011;45572;48.804;8.330;2023-06-22T08:12:49;7.13;;;5.20;;
3549;SDS011;45572;48.804;8.330;2023-06-22T08:15:17;7.83;;;5.40;;
3549;SDS011;45572;48.804;8.330;2023-06-22T08:17:47;9.10;;;6.17;;
3549;SDS011;45572;48.804;8.330;2023-06-22T08:20:15;7.20;;;5.80;;
3549;SDS011;45572;48.804;8.330;2023-06-22T08:22:43;10.03;;;6.80;;
3549;SDS011;45572;48.804;8.330;2023-06-22T08:25:13;10.00;;;6.57;;
3549;SDS011;45572;48.804;8.330;2023-06-22T08:27:44;7.53;;;6.40;;
3549;SDS011;45572;48.804;8.330;2023-06-22T08:30:13;18.50;;;7.20;;
3549;SDS011;45572;48.804;8.330;2023-06-22T08:32:42;10.30;;;6.47;;
3549;SDS011;45572;48.804;8.330;2023-06-22T08:35:10;5.80;;;4.97;;
3549;SDS011;45572;48.804;8.330;2023-06-22T08:37:39;7.23;;;5.60;;
3549;SDS011;45572;48.804;8.330;2023-06-22T08:40:07;11.40;;;5.50;;
3549;SDS011;45572;48.804;8.330;2023-06-22T08:42:39;6.67;;;5.73;;
3549;SDS011;45572;48.804;8.330;2023-06-22T08:45:08;8.97;;;5.40;;
3549;SDS011;45572;48.804;8.330;2023-06-22T08:47:37;7.53;;;5.27;;
3549;SDS011;45572;48.804;8.330;2023-06-22T08:50:05;10.00;;;5.63;;
3549;SDS011;45572;48.804;8.330;2023-06-22T08:52:35;9.20;;;5.77;;
3549;SDS011;45572;48.804;8.330;2023-06-22T08:55:03;8.40;;;5.47;;
3549;SDS011;45572;48.804;8.330;2023-06-22T08:57:31;10.70;;;6.20;;
3549;SDS011;45572;48.804;8.330;2023-06-22T09:00:01;8.20;;;5.20;;
3549;SDS011;45572;48.804;8.330;2023-06-22T09:02:31;5.93;;;5.07;;
3549;SDS011;45572;48.804;8.330;2023-06-22T09:05:03;6.30;;;4.60;;
3549;SDS011;45572;48.804;8.330;2023-06-22T09:07:32;8.47;;;5.27;;
3549;SDS011;45572;48.804;8.330;2023-06-22T09:10:01;7.40;;;4.43;;
3549;SDS011;45572;48.804;8.330;2023-06-22T09:12:31;5.87;;;4.60;;
3549;SDS011;45572;48.804;8.330;2023-06-22T09:15:03;5.43;;;4.57;;
3549;SDS011;45572;48.804;8.330;2023-06-22T09:17:38;7.40;;;5.10;;
3549;SDS011;45572;48.804;8.330;2023-06-22T09:20:06;6.47;;;4.43;;
3549;SDS011;45572;48.804;8.330;2023-06-22T09:22:38;8.03;;;5.37;;
3549;SDS011;45572;48.804;8.330;2023-06-22T09:25:07;7.80;;;4.70;;
3549;SDS011;45572;48.804;8.330;2023-06-22T09:27:35;6.53;;;4.73;;
3549;SDS011;45572;48.804;8.330;2023-06-22T09:30:08;6.97;;;4.70;;
3549;SDS011;45572;48.804;8.330;2023-06-22T09:32:36;7.50;;;5.27;;
3549;SDS011;45572;48.804;8.330;2023-06-22T09:35:05;8.60;;;5.67;;
3549;SDS011;45572;48.804;8.330;2023-06-22T09:37:34;5.30;;;4.80;;
3549;SDS011;45572;48.804;8.330;2023-06-22T09:40:02;12.53;;;5.30;;
3549;SDS011;45572;48.804;8.330;2023-06-22T09:42:34;9.63;;;4.77;;
3549;SDS011;45572;48.804;8.330;2023-06-22T09:45:03;5.87;;;5.00;;
3549;SDS011;45572;48.804;8.330;2023-06-22T09:47:37;5.87;;;5.03;;
3549;SDS011;45572;48.804;8.330;2023-06-22T09:50:07;9.07;;;5.57;;
3549;SDS011;45572;48.804;8.330;2023-06-22T09:52:35;11.63;;;5.70;;
3549;SDS011;45572;48.804;8.330;2023-06-22T09:55:09;10.63;;;6.10;;
3549;SDS011;45572;48.804;8.330;2023-06-22T09:57:41;10.20;;;5.10;;
3549;SDS011;45572;48.804;8.330;2023-06-22T10:00:10;8.50;;;6.27;;
3549;SDS011;45572;48.804;8.330;2023-06-22T10:02:44;10.27;;;6.50;;
3549;SDS011;45572;48.804;8.330;2023-06-22T10:05:12;12.10;;;7.10;;
3549;SDS011;45572;48.804;8.330;2023-06-22T10:07:40;7.43;;;6.50;;
3549;SDS011;45572;48.804;8.330;2023-06-22T10:10:12;8.97;;;5.43;;
3549;SDS011;45572;48.804;8.330;2023-06-22T10:12:43;13.17;;;6.83;;
3549;SDS011;45572;48.804;8.330;2023-06-22T10:15:17;10.40;;;6.20;;
3549;SDS011;45572;48.804;8.330;2023-06-22T10:17:50;10.93;;;6.70;;
3549;SDS011;45572;48.804;8.330;2023-06-22T10:20:20;7.73;;;6.20;;
3549;SDS011;45572;48.804;8.330;2023-06-22T10:22:51;13.93;;;6.10;;
3549;SDS011;45572;48.804;8.330;2023-06-22T10:25:21;9.43;;;5.50;;
3549;SDS011;45572;48.804;8.330;2023-06-22T10:27:50;11.97;;;5.83;;
3549;SDS011;45572;48.804;8.330;2023-06-22T10:30:18;9.60;;;6.00;;
3549;SDS011;45572;48.804;8.330;2023-06-22T10:32:46;7.00;;;5.50;;
3549;SDS011;45572;48.804;8.330;2023-06-22T10:35:15;12.97;;;6.47;;
3549;SDS011;45572;48.804;8.330;2023-06-22T10:37:43;8.13;;;6.23;;
3549;SDS011;45572;48.804;8.330;2023-06-22T10:40:12;10.53;;;6.80;;
3549;SDS011;45572;48.804;8.330;2023-06-22T10:42:41;10.23;;;6.53;;
3549;SDS011;45572;48.804;8.330;2023-06-22T10:45:09;7.53;;;6.00;;
3549;SDS011;45572;48.804;8.330;2023-06-22T10:47:38;9.37;;;5.93;;
3549;SDS011;45572;48.804;8.330;2023-06-22T10:50:08;15.50;;;6.60;;
3549;SDS011;45572;48.804;8.330;2023-06-22T10:52:39;8.90;;;5.47;;
3549;SDS011;45572;48.804;8.330;2023-06-22T10:55:08;8.00;;;6.10;;
3549;SDS011;45572;48.804;8.330;2023-06-22T10:57:39;14.53;;;6.67;;
3549;SDS011;45572;48.804;8.330;2023-06-22T11:00:12;17.47;;;6.80;;
3549;SDS011;45572;48.804;8.330;2023-06-22T11:02:41;9.90;;;6.27;;
3549;SDS011;45572;48.804;8.330;2023-06-22T11:05:13;9.53;;;6.17;;
3549;SDS011;45572;48.804;8.330;2023-06-22T11:07:43;9.20;;;6.13;;
3549;SDS011;45572;48.804;8.330;2023-06-22T11:10:13;8.70;;;6.20;;
3549;SDS011;45572;48.804;8.330;2023-06-22T11:12:41;9.37;;;6.43;;
3549;SDS011;45572;48.804;8.330;2023-06-22T11:15:10;10.73;;;6.70;;
3549;SDS011;45572;48.804;8.330;2023-06-22T11:17:42;7.30;;;5.70;;
3549;SDS011;45572;48.804;8.330;2023-06-22T11:20:11;6.50;;;5.80;;
3549;SDS011;45572;48.804;8.330;2023-06-22T11:22:41;11.10;;;6.50;;
3549;SDS011;45572;48.804;8.330;2023-06-22T11:25:11;9.97;;;6.17;;
3549;SDS011;45572;48.804;8.330;2023-06-22T11:27:39;8.23;;;6.00;;
3549;SDS011;45572;48.804;8.330;2023-06-22T11:30:08;11.30;;;6.30;;
3549;SDS011;45572;48.804;8.330;2023-06-22T11:32:36;7.80;;;5.80;;
3549;SDS011;45572;48.804;8.330;2023-06-22T11:35:06;9.47;;;7.00;;
3549;SDS011;45572;48.804;8.330;2023-06-22T11:37:36;14.50;;;7.07;;
3549;SDS011;45572;48.804;8.330;2023-06-22T11:40:06;9.40;;;6.17;;
3549;SDS011;45572;48.804;8.330;2023-06-22T11:42:39;8.97;;;6.47;;
3549;SDS011;45572;48.804;8.330;2023-06-22T11:45:08;11.60;;;6.93;;
3549;SDS011;45572;48.804;8.330;2023-06-22T11:47:37;9.30;;;6.60;;
3549;SDS011;45572;48.804;8.330;2023-06-22T11:50:09;10.53;;;8.10;;
3549;SDS011;45572;48.804;8.330;2023-06-22T11:52:37;11.83;;;6.40;;
3549;SDS011;45572;48.804;8.330;2023-06-22T11:55:06;10.43;;;7.10;;
3549;SDS011;45572;48.804;8.330;2023-06-22T11:57:35;8.43;;;6.00;;
3549;SDS011;45572;48.804;8.330;2023-06-22T12:00:07;11.67;;;6.90;;
3549;SDS011;45572;48.804;8.330;2023-06-22T12:02:45;9.13;;;6.53;;
3549;SDS011;45572;48.804;8.330;2023-06-22T12:05:13;9.37;;;6.20;;
3549;SDS011;45572;48.804;8.330;2023-06-22T12:07:41;13.27;;;7.93;;
3549;SDS011;45572;48.804;8.330;2023-06-22T12:10:09;12.73;;;7.27;;
3549;SDS011;45572;48.804;8.330;2023-06-22T12:12:42;12.77;;;8.10;;
3549;SDS011;45572;48.804;8.330;2023-06-22T12:15:15;10.70;;;7.07;;
3549;SDS011;45572;48.804;8.330;2023-06-22T12:17:45;16.60;;;8.03;;
3549;SDS011;45572;48.804;8.330;2023-06-22T12:20:15;11.37;;;7.17;;
3549;SDS011;45572;48.804;8.330;2023-06-22T12:22:44;13.20;;;6.60;;
3549;SDS011;45572;48.804;8.330;2023-06-22T12:25:13;20.17;;;8.97;;
3549;SDS011;45572;48.804;8.330;2023-06-22T12:27:44;20.37;;;13.60;;
3549;SDS011;45572;48.804;8.330;2023-06-22T12:30:12;17.80;;;10.90;;
3549;SDS011;45572;48.804;8.330;2023-06-22T12:32:42;10.33;;;6.80;;
3549;SDS011;45572;48.804;8.330;2023-06-22T12:35:15;13.80;;;8.17;;
3549;SDS011;45572;48.804;8.330;2023-06-22T12:37:43;13.80;;;8.00;;
3549;SDS011;45572;48.804;8.330;2023-06-22T12:40:11;13.33;;;7.03;;
3549;SDS011;45572;48.804;8.330;2023-06-22T12:42:39;10.23;;;6.60;;
3549;SDS011;45572;48.804;8.330;2023-06-22T12:45:08;12.50;;;8.07;;
3549;SDS011;45572;48.804;8.330;2023-06-22T12:47:37;10.63;;;6.67;;
3549;SDS011;45572;48.804;8.330;2023-06-22T12:50:09;10.87;;;7.57;;
3549;SDS011;45572;48.804;8.330;2023-06-22T12:52:39;11.17;;;7.80;;
3549;SDS011;45572;48.804;8.330;2023-06-22T12:55:10;12.97;;;6.87;;
3549;SDS011;45572;48.804;8.330;2023-06-22T12:57:38;14.07;;;7.90;;
3549;SDS011;45572;48.804;8.330;2023-06-22T13:00:07;10.07;;;7.07;;
3549;SDS011;45572;48.804;8.330;2023-06-22T13:02:37;10.70;;;7.37;;
3549;SDS011;45572;48.804;8.330;2023-06-22T13:05:05;10.27;;;6.90;;
3549;SDS011;45572;48.804;8.330;2023-06-22T13:07:34;10.70;;;7.17;;
3549;SDS011;45572;48.804;8.330;2023-06-22T13:10:02;10.63;;;7.33;;
3549;SDS011;45572;48.804;8.330;2023-06-22T13:12:30;16.87;;;8.73;;
3549;SDS011;45572;48.804;8.330;2023-06-22T13:14:58;15.93;;;8.80;;
3549;SDS011;45572;48.804;8.330;2023-06-22T13:17:25;11.43;;;7.40;;
3549;SDS011;45572;48.804;8.330;2023-06-22T13:19:53;9.20;;;6.73;;
3549;SDS011;45572;48.804;8.330;2023-06-22T13:22:29;9.80;;;7.30;;
3549;SDS011;45572;48.804;8.330;2023-06-22T13:24:59;15.00;;;6.90;;
3549;SDS011;45572;48.804;8.330;2023-06-22T13:27:28;14.40;;;8.33;;
3549;SDS011;45572;48.804;8.330;2023-06-22T13:29:56;10.40;;;7.97;;
3549;SDS011;45572;48.804;8.330;2023-06-22T13:32:24;12.10;;;8.50;;
3549;SDS011;45572;48.804;8.330;2023-06-22T13:34:52;9.93;;;7.80;;
3549;SDS011;45572;48.804;8.330;2023-06-22T13:37:23;11.93;;;7.40;;
3549;SDS011;45572;48.804;8.330;2023-06-22T13:39:52;12.40;;;8.13;;
3549;SDS011;45572;48.804;8.330;2023-06-22T13:42:28;14.57;;;7.33;;
3549;SDS011;45572;48.804;8.330;2023-06-22T13:44:58;10.10;;;8.47;;
3549;SDS011;45572;48.804;8.330;2023-06-22T13:47:25;9.10;;;7.43;;
3549;SDS011;45572;48.804;8.330;2023-06-22T13:49:56;19.30;;;8.87;;
3549;SDS011;45572;48.804;8.330;2023-06-22T13:52:24;9.43;;;8.37;;
3549;SDS011;45572;48.804;8.330;2023-06-22T13:54:52;10.63;;;8.67;;
3549;SDS011;45572;48.804;8.330;2023-06-22T13:57:20;11.40;;;7.50;;
3549;SDS011;45572;48.804;8.330;2023-06-22T13:59:49;14.83;;;7.80;;
3549;SDS011;45572;48.804;8.330;2023-06-22T14:02:21;14.13;;;9.47;;
3549;SDS011;45572;48.804;8.330;2023-06-22T14:04:49;14.03;;;7.10;;
3549;SDS011;45572;48.804;8.330;2023-06-22T14:07:18;8.77;;;7.60;;
3549;SDS011;45572;48.804;8.330;2023-06-22T14:09:47;13.50;;;8.40;;
3549;SDS011;45572;48.804;8.330;2023-06-22T14:12:17;13.67;;;9.00;;
3549;SDS011;45572;48.804;8.330;2023-06-22T14:14:47;14.63;;;7.80;;
3549;SDS011;45572;48.804;8.330;2023-06-22T14:17:16;11.97;;;7.27;;
3549;SDS011;45572;48.804;8.330;2023-06-22T14:19:52;9.50;;;7.37;;
3549;SDS011;45572;48.804;8.330;2023-06-22T14:22:20;12.30;;;8.77;;
3549;SDS011;45572;48.804;8.330;2023-06-22T14:24:52;15.10;;;7.60;;
3549;SDS011;45572;48.804;8.330;2023-06-22T14:27:22;19.50;;;8.47;;
3549;SDS011;45572;48.804;8.330;2023-06-22T14:29:50;11.90;;;7.00;;
3549;SDS011;45572;48.804;8.330;2023-06-22T14:32:21;14.40;;;9.00;;
3549;SDS011;45572;48.804;8.330;2023-06-22T14:34:51;19.53;;;7.97;;
3549;SDS011;45572;48.804;8.330;2023-06-22T14:37:20;13.53;;;8.33;;
3549;SDS011;45572;48.804;8.330;2023-06-22T14:39:51;7.90;;;6.70;;
3549;SDS011;45572;48.804;8.330;2023-06-22T14:42:19;12.50;;;7.10;;
3549;SDS011;45572;48.804;8.330;2023-06-22T14:44:51;11.80;;;7.30;;
3549;SDS011;45572;48.804;8.330;2023-06-22T14:47:20;15.40;;;7.67;;
3549;SDS011;45572;48.804;8.330;2023-06-22T14:49:53;14.13;;;8.33;;
3549;SDS011;45572;48.804;8.330;2023-06-22T14:52:22;14.60;;;6.80;;
3549;SDS011;45572;48.804;8.330;2023-06-22T14:54:50;11.90;;;7.53;;
3549;SDS011;45572;48.804;8.330;2023-06-22T14:57:18;18.17;;;7.77;;
3549;SDS011;45572;48.804;8.330;2023-06-22T14:59:49;14.40;;;6.53;;
3549;SDS011;45572;48.804;8.330;2023-06-22T15:02:17;17.93;;;8.60;;
3549;SDS011;45572;48.804;8.330;2023-06-22T15:04:46;14.70;;;8.40;;
3549;SDS011;45572;48.804;8.330;2023-06-22T15:07:18;12.13;;;8.00;;